Latest Weather Observations for Deniliquin

IDN60801

Issued at 9:53 am EDT Monday 6 February 2023 (issued every 10 minutes, with the page automatically refreshed every 10 minutes)

About weather observations | Map of weather stations | Latest weather observations for NSW | Other Formats
Station Details ID: 074258 Name: DENILIQUIN AIRPORT AWS Lat: -35.56 Lon: 144.95 Height: 94.0 m
Data from the previous 72 hours. | See also: Recent months at Deniliquin
Date/Time
EDT
Temp
°C
App
Temp
°C
Dew
Point
°C
Rel
Hum
%
Delta-T
°C
Wind Press
QNH
hPa
Press
MSL
hPa
Rain since
9am
mm
Dir  Spd
km/h
Gust
km/h
Spd
kts
Gust
kts
06/09:30am 20.1 18.4 11.3 57 4.9 SSE 11 17 6 9 1019.3 1018.9 0.0
06/09:00am 18.5 16.4 11.3 63 3.9 S 13 17 7 9 1019.2 1018.8 0.0
06/08:30am 16.2 14.0 10.9 71 2.8 S 13 17 7 9 1019.2 1018.8 0.0
06/08:00am 14.1 12.7 10.9 81 1.7 SSW 9 11 5 6 1018.7 1018.3 0.0
06/07:30am 12.0 10.6 9.7 86 1.2 SW 7 9 4 5 1018.5 1018.1 0.0
06/07:00am 10.9 9.0 9.2 89 0.8 WSW 9 11 5 6 1018.0 1017.5 0.0
06/06:30am 10.9 9.0 9.2 89 0.9 W 9 9 5 5 1017.7 1017.2 0.0
06/06:00am 11.3 10.3 8.9 85 1.2 WSW 4 6 2 3 1017.4 1016.9 0.0
06/05:30am 11.9 11.1 9.5 85 1.2 WSW 4 6 2 3 1016.9 1016.4 0.0
06/05:00am 12.2 11.0 9.4 83 1.4 WSW 6 9 3 5 1016.8 1016.3 0.0
06/04:30am 12.2 9.6 9.4 83 1.4 S 13 15 7 8 1016.4 1015.9 0.0
06/04:00am 12.4 10.6 9.4 82 1.5 S 9 11 5 6 1016.4 1015.9 0.0
06/03:30am 12.6 10.8 9.6 82 1.5 SSW 9 9 5 5 1016.5 1016.0 0.0
06/03:00am 13.1 10.6 9.7 80 1.7 SSW 13 13 7 7 1016.4 1015.9 0.0
06/02:30am 14.0 11.3 10.2 78 2.0 SW 15 15 8 8 1016.5 1016.0 0.0
06/02:00am 14.2 11.5 10.4 78 2.0 SSW 15 17 8 9 1016.5 1016.0 0.0
06/01:30am 15.6 13.8 11.0 74 2.5 S 11 15 6 8 1016.4 1015.9 0.0
06/01:00am 14.9 13.2 9.9 72 2.6 SSE 9 13 5 7 1016.4 1015.9 0.0
06/12:30am 15.9 12.4 8.9 63 3.6 S 17 20 9 11 1016.4 1015.9 0.0
06/12:00am 16.8 16.5 8.5 58 4.3 CALM 0 0 0 0 1016.0 1015.5 0.0
 
Date/Time
EDT
Temp
°C
App
Temp
°C
Dew
Point
°C
Rel
Hum
%
Delta-T
°C
Wind Press
QNH
hPa
Press
MSL
hPa
Rain since
9am
mm
Dir  Spd
km/h
Gust
km/h
Spd
kts
Gust
kts
05/11:30pm 17.7 17.2 8.0 53 5.0 CALM 0 0 0 0 1016.1 1015.6 0.0
05/11:00pm 17.4 16.3 8.5 56 4.6 SE 4 7 2 4 1016.2 1015.7 0.0
05/10:30pm 17.5 15.8 8.4 55 4.7 S 7 9 4 5 1016.3 1015.8 0.0
05/10:00pm 19.3 16.7 7.7 47 6.0 WSW 11 13 6 7 1016.3 1015.8 0.0
05/09:30pm 20.0 17.4 7.7 45 6.3 WSW 11 13 6 7 1016.1 1015.6 0.0
05/09:00pm 20.4 18.3 8.1 45 6.4 WSW 9 11 5 6 1016.0 1015.5 0.0
05/08:30pm 22.3 20.2 8.1 40 7.5 SW 9 11 5 6 1015.7 1015.2 0.0
05/08:00pm 24.9 22.2 7.5 33 9.2 SW 11 13 6 7 1015.3 1014.9 0.0
05/07:30pm 25.7 22.6 7.3 31 9.8 SW 13 20 7 11 1015.1 1014.7 0.0
05/07:00pm 26.2 22.7 7.3 30 10.0 SW 15 20 8 11 1015.0 1014.6 0.0
05/06:30pm 26.6 22.3 7.1 29 10.4 WSW 19 28 10 15 1015.0 1014.6 0.0
05/06:00pm 26.7 22.6 7.7 30 10.2 SW 19 28 10 15 1015.0 1014.6 0.0
05/05:30pm 26.6 23.2 7.6 30 10.2 W 15 22 8 12 1015.0 1014.6 0.0
05/05:00pm 27.2 23.0 8.1 30 10.3 W 20 28 11 15 1015.2 1014.8 0.0
05/04:30pm 27.0 23.3 8.0 30 10.3 SW 17 26 9 14 1015.6 1015.1 0.0
05/04:00pm 26.6 22.8 7.6 30 10.2 SW 17 32 9 17 1015.6 1015.1 0.0
05/03:30pm 26.6 22.1 7.1 29 10.4 SW 20 30 11 16 1015.9 1015.4 0.0
05/03:00pm 26.2 22.1 7.7 31 9.9 SW 19 32 10 17 1016.1 1015.6 0.0
05/02:30pm 26.5 22.8 8.0 31 10.0 WSW 17 28 9 15 1016.3 1015.8 0.0
05/02:00pm 25.0 20.6 7.2 32 9.4 WSW 20 28 11 15 1016.6 1016.1 0.0
05/01:30pm 24.0 19.7 7.2 34 8.8 WSW 19 26 10 14 1017.0 1016.5 0.0
05/01:00pm 24.3 21.2 8.7 37 8.4 WSW 15 24 8 13 1017.2 1016.7 0.0
05/12:30pm 23.2 19.0 8.1 38 8.0 WSW 20 32 11 17 1017.4 1016.9 0.0
05/12:00pm 22.5 18.9 8.2 40 7.5 WSW 17 35 9 19 1017.7 1017.2 0.0
05/11:30am 22.0 19.6 8.5 42 7.2 WSW 11 22 6 12 1017.8 1017.3 0.0
05/11:00am 20.2 17.7 8.2 46 6.2 SW 11 22 6 12 1018.0 1017.5 0.0
05/10:30am 19.6 17.0 7.7 46 6.1 SW 11 19 6 10 1018.0 1017.5 0.0
05/10:00am 18.8 16.7 8.2 50 5.5 S 9 17 5 9 1018.1 1017.6 0.0
05/09:30am 18.1 15.3 8.4 53 5.0 S 13 17 7 9 1018.2 1017.8 0.0
05/09:00am 17.1 14.0 8.8 58 4.3 S 15 19 8 10 1018.1 1017.6 0.0
05/08:30am 15.2 12.6 9.3 68 3.0 SSW 13 15 7 8 1017.9 1017.4 0.0
05/08:00am 13.3 10.9 8.8 74 2.3 SSW 11 13 6 7 1017.3 1016.8 0.0
05/07:30am 11.1 9.0 8.3 83 1.4 WSW 9 9 5 5 1016.9 1016.4 0.0
05/07:00am 9.5 7.5 7.3 86 1.0 SW 7 9 4 5 1016.6 1016.1 0.0
05/06:30am 9.7 7.0 7.5 86 1.1 SW 11 13 6 7 1016.2 1015.7 0.0
05/06:00am 9.7 7.0 7.3 85 1.1 SW 11 11 6 6 1015.7 1015.2 0.0
05/05:30am 10.1 7.8 7.3 83 1.3 SW 9 9 5 5 1015.0 1014.6 0.0
05/05:00am 10.5 8.6 7.6 82 1.4 WSW 7 9 4 5 1014.6 1014.2 0.0
05/04:30am 10.6 8.4 7.7 82 1.4 SW 9 11 5 6 1014.2 1013.8 0.0
05/04:00am 11.2 9.0 7.9 80 1.6 SW 9 11 5 6 1013.9 1013.5 0.0
05/03:30am 11.3 9.1 8.0 80 1.6 SW 9 11 5 6 1013.7 1013.3 0.0
05/03:00am 11.1 8.8 7.6 79 1.7 SW 9 11 5 6 1013.8 1013.4 0.0
05/02:30am 12.1 10.4 7.6 74 2.2 SW 6 7 3 4 1013.7 1013.3 0.0
05/02:00am 12.0 9.8 7.7 75 2.1 SW 9 11 5 6 1013.7 1013.3 0.0
05/01:30am 12.7 9.8 8.0 73 2.3 SW 13 15 7 8 1013.5 1013.1 0.0
05/01:00am 13.5 10.5 7.9 69 2.8 SSW 13 13 7 7 1013.4 1013.0 0.0
05/12:30am 14.6 11.3 7.9 64 3.4 SSW 15 17 8 9 1013.2 1012.8 0.0
05/12:00am 14.1 11.5 7.9 66 3.1 SW 11 13 6 7 1013.2 1012.8 0.0
 
Date/Time
EDT
Temp
°C
App
Temp
°C
Dew
Point
°C
Rel
Hum
%
Delta-T
°C
Wind Press
QNH
hPa
Press
MSL
hPa
Rain since
9am
mm
Dir  Spd
km/h
Gust
km/h
Spd
kts
Gust
kts
04/11:30pm 15.5 12.6 8.3 62 3.7 SW 13 17 7 9 1013.1 1012.7 0.0
04/11:00pm 15.1 12.8 7.6 61 3.7 WSW 9 11 5 6 1012.8 1012.4 0.0
04/10:30pm 17.5 14.1 7.8 53 4.9 W 15 17 8 9 1012.5 1012.1 0.0
04/10:00pm 17.7 14.8 8.0 53 5.0 W 13 17 7 9 1012.3 1011.9 0.0
04/09:30pm 18.0 15.1 8.0 52 5.1 W 13 17 7 9 1012.0 1011.6 0.0
04/09:00pm 19.5 16.2 7.9 47 6.0 W 15 19 8 10 1011.6 1011.2 0.0
04/08:30pm 21.1 17.3 7.7 42 7.0 W 17 22 9 12 1011.1 1010.7 0.0
04/08:00pm 22.2 18.0 7.6 39 7.6 W 19 26 10 14 1010.8 1010.4 0.0
04/07:30pm 23.5 19.2 8.0 37 8.2 WSW 20 33 11 18 1010.4 1010.0 0.0
04/07:00pm 23.7 18.7 8.2 37 8.3 WSW 24 35 13 19 1010.0 1009.6 0.0
04/06:30pm 23.3 17.4 7.4 36 8.3 WSW 28 35 15 19 1009.8 1009.4 0.0
04/06:00pm 23.4 17.6 7.9 37 8.2 WSW 28 35 15 19 1009.6 1009.2 0.0
04/05:30pm 24.2 18.0 7.8 35 8.7 WSW 30 39 16 21 1009.4 1009.0 0.0
04/05:00pm 23.2 16.6 7.7 37 8.2 WSW 32 43 17 23 1009.4 1009.0 0.0
04/04:30pm 22.9 16.4 8.2 39 7.8 W 32 39 17 21 1009.4 1009.0 0.0
04/04:00pm 23.4 17.6 7.9 37 8.2 W 28 35 15 19 1009.3 1008.9 0.0
04/03:30pm 22.5 17.0 7.5 38 7.8 WSW 26 35 14 19 1009.4 1009.0 0.0
04/03:00pm 22.8 16.3 8.1 39 7.8 W 32 44 17 24 1009.3 1008.9 0.0
04/02:41pm 23.5 16.9 7.6 36 8.4 W 32 50 17 27 1009.3 1008.9 0.0
04/02:30pm 22.8 16.1 8.1 39 7.8 W 33 44 18 24 1009.5 1009.1 0.0
04/02:19pm 24.0 17.8 9.2 39 8.0 W 32 50 17 27 1009.3 1008.9 0.0
04/02:00pm 22.1 16.1 8.6 42 7.2 W 30 41 16 22 1009.5 1009.1 0.0
04/01:30pm 21.8 16.1 8.3 42 7.1 W 28 41 15 22 1009.8 1009.4 0.0
04/01:00pm 21.2 15.8 9.4 47 6.3 W 28 41 15 22 1009.8 1009.4 0.0
04/12:30pm 20.4 14.9 9.0 48 6.0 W 28 39 15 21 1010.0 1009.6 0.0
04/12:00pm 20.5 15.0 9.1 48 6.1 W 28 39 15 21 1010.1 1009.7 0.0
04/11:30am 19.3 13.7 8.9 51 5.5 W 28 41 15 22 1010.0 1009.6 0.0
04/11:00am 18.4 12.0 8.7 53 5.1 W 32 41 17 22 1010.1 1009.7 0.0
04/10:30am 18.0 12.2 9.4 57 4.5 W 30 43 16 23 1009.7 1009.3 0.0
04/10:00am 16.3 10.4 9.0 62 3.8 W 30 39 16 21 1009.4 1009.0 0.0
04/09:30am 14.6 9.1 9.0 69 2.9 W 28 39 15 21 1009.2 1008.8 0.0
04/09:00am 13.3 8.5 8.8 74 2.3 WNW 24 35 13 19 1008.7 1008.2 0.8
04/08:30am 12.0 8.2 9.0 82 1.5 WNW 19 24 10 13 1008.5 1008.0 0.8
04/08:00am 10.5 7.0 8.8 89 0.8 WNW 17 20 9 11 1007.8 1007.3 0.8
04/07:30am 9.3 6.0 8.1 92 0.6 WNW 15 20 8 11 1007.5 1007.0 0.8
04/07:00am 8.5 5.0 7.4 93 0.5 WNW 15 19 8 10 1007.2 1006.7 0.8
04/06:30am 8.4 4.9 7.3 93 0.5 WNW 15 20 8 11 1006.6 1006.1 0.8
04/06:00am 8.3 5.2 7.2 93 0.5 NW 13 17 7 9 1006.1 1005.6 0.8
04/05:30am 8.6 5.1 7.2 91 0.7 WNW 15 20 8 11 1005.7 1005.2 0.8
04/05:00am 8.5 5.4 7.1 91 0.7 WNW 13 17 7 9 1005.5 1005.0 0.8
04/04:30am 8.5 5.3 7.0 90 0.7 WNW 13 19 7 10 1005.2 1004.7 0.8
04/04:00am 8.8 5.3 7.1 89 0.8 WNW 15 19 8 10 1005.1 1004.6 0.8
04/03:30am 9.1 5.5 6.9 86 1.0 WNW 15 17 8 9 1005.0 1004.5 0.8
04/03:00am 9.4 5.8 6.8 84 1.2 WNW 15 17 8 9 1005.0 1004.5 0.8
04/02:30am 9.7 5.7 6.8 82 1.4 WNW 17 24 9 13 1005.0 1004.5 0.8
04/02:00am 10.0 5.6 6.5 79 1.6 W 19 24 10 13 1004.7 1004.2 0.8
04/01:30am 10.2 5.8 6.4 77 1.8 W 19 26 10 14 1004.7 1004.2 0.8
04/01:00am 10.5 5.8 6.1 74 2.1 W 20 26 11 14 1004.5 1004.0 0.8
04/12:30am 10.6 6.0 5.6 71 2.3 W 19 24 10 13 1004.2 1003.8 0.8
04/12:00am 11.2 7.0 5.5 68 2.7 WNW 17 22 9 12 1004.0 1003.6 0.8
 
Date/Time
EDT
Temp
°C
App
Temp
°C
Dew
Point
°C
Rel
Hum
%
Delta-T
°C
Wind Press
QNH
hPa
Press
MSL
hPa
Rain since
9am
mm
Dir  Spd
km/h
Gust
km/h
Spd
kts
Gust
kts
03/11:30pm 11.2 6.5 5.3 67 2.7 W 19 24 10 13 1003.8 1003.4 0.8
03/11:00pm 11.2 6.9 5.1 66 2.8 W 17 19 9 10 1003.7 1003.3 0.8
03/10:30pm 11.7 7.7 5.1 64 3.0 W 15 20 8 11 1003.4 1003.0 0.8
03/10:00pm 12.2 8.2 5.1 62 3.3 W 15 19 8 10 1003.1 1002.7 0.8
03/09:30pm 13.1 9.1 5.0 58 3.8 W 15 19 8 10 1002.3 1001.9 0.8
03/09:00pm 13.8 9.4 4.9 55 4.2 W 17 22 9 12 1001.5 1001.1 0.8
03/08:30pm 14.9 9.6 4.9 51 4.7 W 22 33 12 18 1000.9 1000.5 0.8
03/08:00pm 16.4 10.5 3.8 43 5.9 W 24 32 13 17 1000.1 999.7 0.8
03/07:30pm 16.5 9.5 3.9 43 5.9 W 30 43 16 23 999.6 999.2 0.8
03/07:00pm 18.0 10.6 3.9 39 6.7 W 32 39 17 21 998.9 998.4 0.8
03/06:30pm 17.9 10.6 2.2 35 7.2 W 30 43 16 23 998.6 998.1 0.8
03/06:00pm 17.3 10.7 5.9 47 5.6 WNW 30 44 16 24 998.3 997.8 0.8
03/05:30pm 17.4 11.1 7.2 51 5.1 WNW 30 41 16 22 998.1 997.6 0.8
03/05:00pm 14.5 9.9 11.1 80 1.8 WNW 26 39 14 21 998.2 997.7 0.8
03/04:42pm 14.3 6.7 7.6 64 3.3 WNW 37 67 20 36 998.2 997.7 0.6
03/04:38pm 17.7 10.8 4.6 42 6.3 WNW 30 52 16 28 997.8 997.3 0.6
03/04:32pm 18.0 10.8 4.9 42 6.3 WNW 32 43 17 23 997.6 997.1 0.6
03/04:30pm 18.0 10.9 5.6 44 6.1 WNW 32 43 17 23 997.6 997.1 0.6
03/04:06pm 18.0 10.5 4.6 41 6.4 WNW 33 52 18 28 997.6 997.1 0.6
03/04:00pm 18.0 10.5 4.6 41 6.5 WNW 33 48 18 26 997.7 997.2 0.6
03/03:58pm 19.1 12.0 5.6 41 6.6 WNW 32 48 17 26 997.7 997.2 0.6
03/03:30pm 16.9 12.7 11.0 68 3.2 W 24 32 13 17 998.0 997.5 0.6
03/03:00pm 12.6 6.5 10.5 87 1.1 WSW 33 46 18 25 998.5 998.0 0.6
03/02:35pm 16.4 9.6 7.1 54 4.6 WNW 32 50 17 27 997.9 997.4 0.0
03/02:30pm 17.2 10.4 5.2 45 5.8 WNW 30 41 16 22 997.9 997.4 0.0
03/02:00pm 17.3 9.8 6.5 49 5.4 WNW 35 48 19 26 998.1 997.6 0.0
03/01:30pm 17.7 10.4 5.3 44 6.0 NW 33 52 18 28 997.7 997.2 0.0
03/01:17pm 16.7 9.4 5.6 48 5.4 NW 33 56 18 30 997.5 997.0 0.0
03/01:00pm 18.3 11.7 6.2 45 6.0 NW 30 44 16 24 997.8 997.3 0.0
03/12:50pm 17.8 10.9 6.3 47 5.7 NW 32 50 17 27 998.0 997.5 0.0
03/12:30pm 16.8 10.1 5.7 48 5.4 NW 30 43 16 23 998.1 997.6 0.0
03/12:00pm 14.6 7.6 6.9 60 3.8 WNW 33 46 18 25 998.5 998.0 0.0
03/11:53am 14.6 8.3 5.9 56 4.2 WNW 28 46 15 25 998.3 997.8 0.0
03/11:30am 16.3 9.3 6.7 53 4.7 W 33 46 18 25 998.1 997.6 0.0
03/11:00am 16.1 9.3 7.1 55 4.5 WNW 32 44 17 24 998.2 997.7 0.0
03/10:30am 15.6 9.0 7.9 60 3.9 W 32 44 17 24 998.0 997.5 0.0
03/10:00am 14.4 8.4 8.8 69 2.9 W 30 43 16 23 998.0 997.5 0.0

Other formats

Comma delimited format used in spreadsheet applications
http://www.bom.gov.au/fwo/IDN60801/IDN60801.95869.axf

JavaScript Object Notation format (JSON) in row-major order
http://www.bom.gov.au/fwo/IDN60801/IDN60801.95869.json

Data quality

Most of these data are generated automatically and are frequently updated. Quality checks on data are not normally performed. It is possible for incorrect values to appear. Refer to information at About Latest Weather Observations and please check the disclaimer before using these data.